Loma Linda, CA (92350)

5:23 PM PDT on August 30, 2014 (GMT -0700)
Loma Linda | Change Station
CLOSE
Current Station
Personal Weather Station
Location: Loma Linda, CA
Elevation: 1240 ft
Nearby Weather Stations

Elev 1240 ft 34.04 °N, 117.22 °W | Updated 8 seconds ago

Clear
Clear
99.0 °F
Feels Like 97 °F
N
4.0
Wind Variable Wind from WSW
Gusts 6.0 mph

Today
High -- | Low -- °F
--% Chance of Precip.
Yesterday
High -- | Low -- °F
Precip. -- in
6:21 AM 7:17 PM
Waxing Crescent, 26% visible
Pressure 29.75 in
Visibility 10.0 miles
Clouds Clear
Heat Index 97 °F
Dew Point 52 °F
Humidity 21%
Rainfall 0.00 in
Snow Depth Not available.
UV 3 out of 12
Pollen 8.20 out of 12
Ozone Unhealthy for Sensitive Groups
PM2.5 Moderate
Flu Activity Not available.
METAR KSBD 302348Z 27007KT 10SM SKC 37/05 A2975

More Conditions Fewer Conditions

Pressure 29.75 in
Visibility 10.0 miles
Clouds Clear
Heat Index 97 °F
Dew Point 52 °F
Humidity 21%
Rainfall 0.00 in
Snow Depth Not available.
UV 3 out of 12
Pollen 8.20 out of 12
Ozone Unhealthy for Sensitive Groups
PM2.5 Moderate
Flu Activity Not available.
METAR KSBD 302348Z 27007KT 10SM SKC 37/05 A2975

More Conditions Fewer Conditions

10-Day Weather Forecast

Almanac

Astronomy

Aug. 30, 2014 Rise Set
Actual Time 6:21 AM PDT 7:17 PM PDT
Civil Twilight 5:55 AM PDT 7:42 PM PDT
Nautical Twilight 5:25 AM PDT 8:13 PM PDT
Astronomical Twilight 4:54 AM PDT 8:44 PM PDT
Moon 10:58 AM PDT (8/30) 10:10 PM PDT (8/30)
Length of Visible Light 13h 47m
Length of Day
12h 56m
Tomorrow will be 2m 1s shorter.
Waxing Crescent, 26% of the Moon is Illuminated
Today
Waxing Crescent
Sep 2
First Quarter
Sep 8
Full
Sep 15
Last Quarter
Sep 24
New

Today's Extremes

State Highs State Lows

Community

WunderPhotos

Upload Photos

1,748,704 photos uploaded!

Nearby

Air Quality

  Air Quality AQ Index Pollutant
Yesterday Unhealthy for Sensitive Groups
OZONE
Yesterday Good
PM10
Current Unhealthy for Sensitive Groups
OZONE
Current Moderate
PM2.5
Sunday Unhealthy for Sensitive Groups
OZONE
Sunday Good
PM10
Sunday Good
CO
Sunday Good
NO2

Snow Depth

Station Depth Elevation
Leavitt Meadows 0 in 7200 ft
Summit Meadow 0 in 9122 ft
Tahoe City Cross 0 in 6750 ft
CSS Lab 0 in 6900 ft
Adin Mountain 0 in 6200 ft

Earthquake Activity

City Distance Mag. Time & Date
Malibu, California 107 miles 2.5 8:11 AM PDT
2014-08-30
Minimum magnitude displayed is 2.5.

Coastal Water Temperatures

Place Temperature
No Stations Reporting

Nearby Weather Stations